Time;durP1;ratioP1;P1;durP2;ratioP2;P2;SDS_P1;SDS_P2;PMS_P1;PMS_P2;Temp;Humidity;BMP_temperature;BMP_pressure;BME280_temperature;BME280_humidity;BME280_pressure;Samples;Min_cycle;Max_cycle;Signal;HPM_P1;HPM_P2
2020/12/07 00:02:00;;;;;;;9.53;5.08;;;;;;;-6.23;77.62;100777.38;1807811;79;21604;-62
2020/12/07 00:04:28;;;;;;;8.83;5.20;;;;;;;-6.23;77.72;100781.58;1807795;79;21562;-61
2020/12/07 00:06:55;;;;;;;9.20;5.30;;;;;;;-6.26;77.80;100788.63;1807845;79;21046;-62
2020/12/07 00:09:25;;;;;;;7.72;4.20;;;;;;;-6.28;77.85;100779.69;1807385;79;23591;-61
2020/12/07 00:11:53;;;;;;;8.95;5.60;;;;;;;-6.28;77.90;100777.16;1807769;79;21082;-61
2020/12/07 00:14:21;;;;;;;9.15;5.35;;;;;;;-6.29;77.74;100784.68;1807838;79;21037;-62
2020/12/07 00:16:49;;;;;;;8.25;5.20;;;;;;;-6.33;77.75;100784.06;1807813;79;21132;-63
2020/12/07 00:19:16;;;;;;;10.93;5.62;;;;;;;-6.33;77.78;100782.39;1807811;79;21167;-61
2020/12/07 00:21:44;;;;;;;7.85;5.25;;;;;;;-6.34;77.72;100780.66;1807814;79;21192;-61
2020/12/07 00:24:12;;;;;;;9.63;5.60;;;;;;;-6.33;77.71;100777.73;1807763;79;21066;-62
2020/12/07 00:26:44;;;;;;;9.18;5.87;;;;;;;-6.36;77.69;100774.66;1807785;78;21513;-63
2020/12/07 00:29:12;;;;;;;;;;;;;;;-6.36;77.72;100773.39;1809159;79;21195;-61
2020/12/07 00:31:39;;;;;;;7.55;4.75;;;;;;;-6.37;77.63;100772.05;1799957;79;20240;-62
2020/12/07 00:34:06;;;;;;;7.97;5.03;;;;;;;-6.43;77.48;100763.80;1799865;78;21533;-61
2020/12/07 00:36:34;;;;;;;8.55;5.22;;;;;;;-6.46;77.45;100764.91;1799754;78;21072;-62
2020/12/07 00:39:02;;;;;;;10.85;5.30;;;;;;;-6.51;77.26;100758.75;1799869;79;21057;-62
2020/12/07 00:41:29;;;;;;;9.78;5.55;;;;;;;-6.58;77.02;100757.98;1799826;79;21580;-62
2020/12/07 00:43:57;;;;;;;8.93;5.12;;;;;;;-6.65;76.98;100764.44;1799962;79;21572;-62
2020/12/07 00:46:25;;;;;;;7.22;4.47;;;;;;;-6.70;77.00;100760.81;1799846;78;21362;-62
2020/12/07 00:48:52;;;;;;;8.68;5.10;;;;;;;-6.70;77.06;100759.55;1799749;79;21064;-62
2020/12/07 00:51:20;;;;;;;8.90;5.37;;;;;;;-6.68;76.99;100765.95;1799872;79;21112;-62
2020/12/07 00:53:48;;;;;;;10.05;5.55;;;;;;;-6.68;76.77;100768.09;1799796;79;21139;-64
2020/12/07 00:56:15;;;;;;;9.60;5.22;;;;;;;-6.71;76.75;100770.86;1799820;79;21696;-63
2020/12/07 00:58:43;;;;;;;8.75;4.65;;;;;;;-6.74;76.57;100766.91;1799836;79;21196;-62
2020/12/07 01:01:12;;;;;;;10.90;5.58;;;;;;;-6.76;76.59;100775.69;1799806;78;21077;-62
2020/12/07 01:03:40;;;;;;;10.08;5.92;;;;;;;-6.79;76.55;100774.67;1799836;79;21097;-62
2020/12/07 01:06:07;;;;;;;8.13;4.95;;;;;;;-6.82;76.51;100772.02;1799837;78;21155;-62
2020/12/07 01:08:36;;;;;;;9.30;5.37;;;;;;;-6.85;76.63;100774.39;1799799;79;21049;-63
2020/12/07 01:11:04;;;;;;;9.85;5.62;;;;;;;-6.86;76.62;100772.66;1799845;79;21470;-62
2020/12/07 01:13:32;;;;;;;8.85;5.25;;;;;;;-6.89;76.48;100773.77;1799785;78;21097;-61
2020/12/07 01:16:00;;;;;;;8.53;4.97;;;;;;;-6.94;76.36;100773.53;1799826;78;21111;-62
2020/12/07 01:18:28;;;;;;;8.65;5.15;;;;;;;-6.98;76.36;100766.58;1799849;79;21092;-62
2020/12/07 01:20:56;;;;;;;10.05;5.80;;;;;;;-7.01;76.41;100767.73;1799838;79;21073;-62
2020/12/07 01:23:24;;;;;;;8.25;4.47;;;;;;;-6.99;76.42;100766.11;1799952;79;22169;-62
2020/12/07 01:25:52;;;;;;;9.05;5.35;;;;;;;-7.00;76.36;100771.59;1799767;79;21508;-62
2020/12/07 01:28:20;;;;;;;10.25;5.70;;;;;;;-7.04;76.43;100776.02;1799803;79;21084;-62
2020/12/07 01:30:48;;;;;;;8.23;5.15;;;;;;;-7.05;76.40;100775.95;1799679;79;21112;-62
2020/12/07 01:33:18;;;;;;;8.98;4.83;;;;;;;-7.05;76.46;100784.80;1799873;79;21132;-62
2020/12/07 01:35:46;;;;;;;9.25;5.78;;;;;;;-7.09;76.34;100795.15;1799820;78;21132;-63
2020/12/07 01:38:14;;;;;;;10.38;5.53;;;;;;;-7.12;76.06;100791.59;1799799;79;21069;-62
2020/12/07 01:40:41;;;;;;;10.00;5.85;;;;;;;-7.17;75.94;100777.84;1799839;78;21481;-62
2020/12/07 01:43:09;;;;;;;10.95;5.80;;;;;;;-7.19;76.02;100781.56;1799826;78;21132;-62
2020/12/07 01:45:37;;;;;;;11.33;5.53;;;;;;;-7.21;75.75;100785.70;1784343;79;21171;-63
2020/12/07 01:48:05;;;;;;;10.15;6.08;;;;;;;-7.21;75.68;100779.77;1799813;78;21455;-64
2020/12/07 01:50:33;;;;;;;11.75;5.83;;;;;;;-7.25;75.59;100781.27;1799924;79;21071;-63
2020/12/07 01:53:02;;;;;;;10.85;5.78;;;;;;;-7.29;75.39;100784.44;1800101;78;21053;-62
2020/12/07 01:55:30;;;;;;;9.33;5.60;;;;;;;-7.34;75.47;100777.88;1800005;79;21136;-62
2020/12/07 01:57:58;;;;;;;9.53;5.47;;;;;;;-7.33;75.47;100780.00;1800024;79;21544;-62
2020/12/07 02:00:27;;;;;;;10.50;5.25;;;;;;;-7.38;75.52;100779.77;1784442;79;22431;-62
2020/12/07 02:02:56;;;;;;;9.53;5.08;;;;;;;-7.39;75.46;100779.30;1799417;79;21207;-62
2020/12/07 02:05:26;;;;;;;11.05;5.40;;;;;;;-7.42;75.33;100785.87;1800032;79;21060;-64
2020/12/07 02:08:18;;;;;;;9.08;5.60;;;;;;;-7.46;75.31;100777.66;1784955;79;21905;-63
2020/12/07 02:11:01;;;;;;;11.28;5.12;;;;;;;-7.47;75.14;100778.45;1799332;79;21140;-61
2020/12/07 02:13:30;;;;;;;13.18;5.55;;;;;;;-7.52;75.10;100774.41;1785003;79;22264;-62
2020/12/07 02:15:58;;;;;;;9.73;5.67;;;;;;;-7.54;75.07;100786.48;1799895;78;21131;-62
2020/12/07 02:18:28;;;;;;;9.28;5.85;;;;;;;-7.54;75.16;100787.75;1799875;79;21148;-61
2020/12/07 02:20:57;;;;;;;10.18;5.90;;;;;;;-7.53;75.17;100800.86;1799989;79;21166;-61
2020/12/07 02:23:44;;;;;;;8.50;4.90;;;;;;;-7.50;75.16;100802.29;1799139;79;21065;-62
2020/12/07 02:26:17;;;;;;;9.68;5.90;;;;;;;-7.49;75.00;100791.39;1800093;79;21372;-61
2020/12/07 02:28:50;;;;;;;12.33;5.85;;;;;;;-7.51;74.93;100796.77;1799911;78;21493;-61
2020/12/07 02:31:19;;;;;;;11.03;4.70;;;;;;;-7.54;74.97;100802.52;1799817;79;21124;-61
2020/12/07 02:33:47;;;;;;;9.83;5.85;;;;;;;-7.55;74.88;100797.39;1799923;78;21171;-64
2020/12/07 02:36:15;;;;;;;14.95;5.87;;;;;;;-7.58;74.71;100795.56;1799963;78;21083;-62
2020/12/07 02:38:45;;;;;;;10.90;5.90;;;;;;;-7.61;74.83;100800.88;1799419;79;21196;-62
2020/12/07 02:41:13;;;;;;;11.85;5.78;;;;;;;-7.63;74.91;100802.45;1799909;79;21065;-62
2020/12/07 02:43:42;;;;;;;8.75;4.60;;;;;;;-7.63;74.62;100798.27;1799951;79;21056;-61
2020/12/07 02:46:10;;;;;;;10.70;5.55;;;;;;;-7.65;74.56;100799.84;1799969;79;21547;-61
2020/12/07 02:48:38;;;;;;;10.03;5.40;;;;;;;-7.69;74.54;100806.39;1800013;79;21542;-62
2020/12/07 02:51:08;;;;;;;11.22;6.50;;;;;;;-7.70;74.61;100803.38;1799886;79;21620;-62
2020/12/07 02:53:36;;;;;;;9.13;5.55;;;;;;;-7.66;74.62;100807.81;1799900;79;21065;-61
2020/12/07 02:56:04;;;;;;;10.98;5.53;;;;;;;-7.63;74.46;100807.11;1799971;78;21052;-62
2020/12/07 02:58:34;;;;;;;11.22;6.10;;;;;;;-7.61;74.41;100804.67;1799282;79;21513;-62
2020/12/07 03:01:03;;;;;;;10.63;5.15;;;;;;;-7.60;74.21;100813.59;1800023;79;21473;-61
2020/12/07 03:03:32;;;;;;;9.80;5.67;;;;;;;-7.62;74.27;100818.95;1799960;79;21189;-62
2020/12/07 03:06:00;;;;;;;9.78;5.80;;;;;;;-7.62;74.12;100811.77;1799883;79;21140;-62
2020/12/07 03:08:28;;;;;;;11.88;6.00;;;;;;;-7.62;74.13;100824.01;1799926;78;21528;-62
2020/12/07 03:10:56;;;;;;;9.90;5.85;;;;;;;-7.58;74.12;100815.77;1799945;79;21053;-62
2020/12/07 03:13:26;;;;;;;11.78;5.58;;;;;;;-7.54;73.92;100817.68;1799873;79;21069;-62
2020/12/07 03:15:55;;;;;;;10.32;5.53;;;;;;;-7.53;73.78;100809.70;1799606;78;21434;-62
2020/12/07 03:18:25;;;;;;;10.55;5.87;;;;;;;-7.55;73.81;100810.89;1799884;79;21057;-62
2020/12/07 03:20:54;;;;;;;9.40;5.37;;;;;;;-7.56;73.83;100819.65;1799613;79;21077;-63
2020/12/07 03:23:22;;;;;;;9.68;5.95;;;;;;;-7.58;73.82;100819.56;1799914;78;21069;-62
2020/12/07 03:25:51;;;;;;;11.83;5.60;;;;;;;-7.60;73.79;100821.17;1799996;79;21690;-63
2020/12/07 03:28:20;;;;;;;13.05;6.60;;;;;;;-7.62;73.87;100820.22;1799948;78;22154;-62
2020/12/07 03:30:49;;;;;;;8.80;4.97;;;;;;;-7.63;73.87;100817.22;1799800;79;21147;-62
2020/12/07 03:33:17;;;;;;;10.38;5.37;;;;;;;-7.68;73.87;100815.70;1799996;79;21608;-62
2020/12/07 03:35:44;;;;;;;10.03;5.40;;;;;;;-7.71;73.91;100820.59;1799918;79;21032;-62
2020/12/07 03:38:12;;;;;;;13.85;6.37;;;;;;;-7.72;74.00;100818.85;1799998;78;21477;-62
2020/12/07 03:40:40;;;;;;;9.50;5.92;;;;;;;-7.76;73.87;100809.37;1799878;78;21541;-62
2020/12/07 03:43:10;;;;;;;10.00;5.47;;;;;;;-7.79;73.93;100810.89;1799089;79;21143;-62
2020/12/07 03:45:43;;;;;;;10.68;5.95;;;;;;;-7.81;73.92;100808.28;1799939;79;21084;-62
2020/12/07 03:48:12;;;;;;;15.30;6.35;;;;;;;-7.87;73.89;100802.03;1784372;79;21040;-62
2020/12/07 03:50:40;;;;;;;11.10;6.30;;;;;;;-7.92;74.07;100808.09;1784373;79;21116;-62
2020/12/07 03:53:08;;;;;;;13.30;7.58;;;;;;;-7.92;74.25;100813.14;1799884;78;21408;-63
2020/12/07 03:55:35;;;;;;;10.68;5.80;;;;;;;-7.90;74.34;100810.70;1799821;78;21494;-62
2020/12/07 03:58:05;;;;;;;11.50;6.72;;;;;;;-7.87;74.27;100805.81;1799486;78;21056;-61
2020/12/07 04:00:32;;;;;;;14.15;6.85;;;;;;;-7.87;74.14;100800.38;1799950;78;21474;-63
2020/12/07 04:03:05;;;;;;;12.65;5.85;;;;;;;-7.87;74.12;100804.55;1799844;78;21056;-61
2020/12/07 04:05:38;;;;;;;13.70;6.33;;;;;;;-7.89;74.18;100802.34;1799736;79;21486;-63
2020/12/07 04:08:03;;;;;;;12.13;6.92;;;;;;;-7.93;74.08;100802.95;1799689;79;21085;-62
2020/12/07 04:10:30;;;;;;;13.18;6.85;;;;;;;-7.96;74.12;100806.18;1799853;79;21517;-62
2020/12/07 04:12:58;;;;;;;16.65;7.97;;;;;;;-7.97;74.22;100804.44;1799830;78;21143;-62
2020/12/07 04:15:27;;;;;;;10.38;5.67;;;;;;;-7.95;74.19;100803.27;1799905;79;21148;-62
2020/12/07 04:17:56;;;;;;;12.98;6.78;;;;;;;-8.00;74.18;100808.96;1799885;79;21445;-63
2020/12/07 04:20:23;;;;;;;11.18;5.80;;;;;;;-8.06;74.19;100799.79;1799792;79;21135;-62
2020/12/07 04:22:51;;;;;;;13.65;7.10;;;;;;;-8.09;74.25;100801.27;1799850;79;21103;-63
2020/12/07 04:25:19;;;;;;;8.88;5.78;;;;;;;-8.07;74.30;100799.70;1799884;79;21152;-62
2020/12/07 04:27:47;;;;;;;9.63;6.15;;;;;;;-8.04;74.25;100801.13;1799876;79;21561;-62
2020/12/07 04:30:15;;;;;;;13.08;6.50;;;;;;;-8.02;74.11;100808.01;1799694;78;21415;-62
2020/12/07 04:32:42;;;;;;;11.22;6.22;;;;;;;-8.01;73.97;100812.27;1799789;78;21964;-63
2020/12/07 04:35:10;;;;;;;10.48;5.28;;;;;;;-8.01;73.90;100801.30;1799851;79;21061;-62
2020/12/07 04:37:37;;;;;;;13.15;6.72;;;;;;;-8.02;73.86;100799.56;1799804;78;21152;-62
2020/12/07 04:40:06;;;;;;;12.63;6.25;;;;;;;-8.04;73.78;100793.56;1799875;79;21065;-62
2020/12/07 04:42:34;;;;;;;11.53;6.08;;;;;;;-8.05;73.91;100800.66;1799955;79;21280;-62
2020/12/07 04:45:02;;;;;;;11.12;6.03;;;;;;;-8.04;73.87;100791.03;1799756;79;21073;-63
2020/12/07 04:47:29;;;;;;;11.03;5.20;;;;;;;-8.04;73.73;100793.17;1799938;79;21544;-63
2020/12/07 04:49:58;;;;;;;11.48;6.33;;;;;;;-8.09;73.63;100799.62;1799911;79;21576;-62
2020/12/07 04:52:26;;;;;;;11.28;6.15;;;;;;;-8.12;73.67;100789.74;1799870;79;21069;-62
2020/12/07 04:54:55;;;;;;;11.08;6.17;;;;;;;-8.14;73.63;100787.13;1799878;78;21188;-62
2020/12/07 04:57:23;;;;;;;12.98;6.33;;;;;;;-8.18;73.79;100788.14;1799803;79;21069;-62
2020/12/07 04:59:50;;;;;;;18.98;6.50;;;;;;;-8.16;73.80;100791.62;1799826;78;21100;-62
2020/12/07 05:02:18;;;;;;;16.32;7.72;;;;;;;-8.16;73.73;100787.83;1784382;79;21077;-62
2020/12/07 05:04:45;;;;;;;13.10;6.37;;;;;;;-8.17;73.63;100779.39;1799881;79;21072;-62
2020/12/07 05:07:13;;;;;;;13.50;6.87;;;;;;;-8.17;73.61;100787.36;1799906;79;22257;-62
2020/12/07 05:09:41;;;;;;;10.70;6.03;;;;;;;-8.20;73.58;100789.35;1748322;79;21133;-62
2020/12/07 05:12:18;;;;;;;17.17;7.20;;;;;;;-8.21;73.53;100785.48;1748331;78;21560;-62
2020/12/07 05:14:40;;;;;;;13.98;6.55;;;;;;;-8.23;73.57;100782.00;1799322;78;21136;-62
2020/12/07 05:17:10;;;;;;;11.43;6.97;;;;;;;-8.26;73.51;100783.96;1748346;79;21109;-62
2020/12/07 05:19:37;;;;;;;11.40;6.22;;;;;;;-8.31;73.52;100789.14;1799615;79;23525;-62
2020/12/07 05:22:14;;;;;;;13.58;6.55;;;;;;;-8.31;73.43;100789.14;1759018;79;21097;-62
2020/12/07 05:24:43;;;;;;;12.35;6.42;;;;;;;-8.32;73.47;100796.66;1799803;78;21037;-63
2020/12/07 05:27:11;;;;;;;16.85;7.10;;;;;;;-8.35;73.51;100798.62;1799832;79;21061;-62
2020/12/07 05:29:52;;;;;;;11.68;7.65;;;;;;;-8.38;73.52;100790.48;1758936;79;21120;-63
2020/12/07 05:32:12;;;;;;;10.88;6.55;;;;;;;-8.38;73.58;100785.83;1781220;79;22158;-62
2020/12/07 05:34:40;;;;;;;9.40;5.75;;;;;;;-8.36;73.50;100788.05;1797220;78;21113;-62
2020/12/07 05:37:09;;;;;;;12.50;6.35;;;;;;;-8.38;73.49;100782.91;1756748;79;21533;-63
2020/12/07 05:39:37;;;;;;;16.95;6.83;;;;;;;-8.37;73.38;100779.61;1797295;79;21084;-62
2020/12/07 05:42:04;;;;;;;22.93;8.35;;;;;;;-8.38;73.35;100785.83;1797321;79;21049;-63
2020/12/07 05:44:32;;;;;;;13.62;6.08;;;;;;;-8.42;73.35;100779.78;1797282;78;21473;-63
2020/12/07 05:46:59;;;;;;;16.62;6.80;;;;;;;-8.43;73.47;100778.03;1797334;79;21570;-62
2020/12/07 05:49:27;;;;;;;17.87;6.40;;;;;;;-8.37;73.44;100774.95;1797222;79;21214;-62
2020/12/07 05:52:03;;;;;;;29.75;11.10;;;;;;;-8.32;73.40;100774.82;1781813;79;21493;-62
2020/12/07 05:54:32;;;;;;;27.95;9.98;;;;;;;-8.33;73.22;100779.39;1797311;79;21128;-62
2020/12/07 05:57:10;;;;;;;28.12;11.08;;;;;;;-8.30;73.29;100778.27;1781830;79;21413;-63
2020/12/07 05:59:41;;;;;;;18.57;8.58;;;;;;;-8.25;73.21;100775.61;1781561;79;21607;-63
2020/12/07 06:02:12;;;;;;;21.10;8.50;;;;;;;-8.22;73.09;100774.52;1796378;79;21112;-61
2020/12/07 06:04:40;;;;;;;34.65;8.08;;;;;;;-8.23;72.79;100770.25;1780152;80;21164;-62
2020/12/07 06:07:08;;;;;;;12.15;6.62;;;;;;;-8.26;72.77;100763.77;1793683;79;21144;-66
2020/12/07 06:09:37;;;;;;;21.23;7.05;;;;;;;-8.27;72.74;100767.47;1801737;77;22286;-63
2020/12/07 06:12:14;;;;;;;13.43;7.40;;;;;;;-8.24;72.74;100763.47;1795866;78;21482;-63
2020/12/07 06:14:42;;;;;;;20.92;7.12;;;;;;;-8.21;72.67;100771.59;1795738;79;21225;-63
2020/12/07 06:17:14;;;;;;;28.65;7.80;;;;;;;-8.20;72.52;100770.42;1779072;80;21203;-61
2020/12/07 06:19:41;;;;;;;17.50;7.87;;;;;;;-8.20;72.41;100770.81;1793141;79;21108;-62
2020/12/07 06:22:10;;;;;;;14.47;7.15;;;;;;;-8.18;72.34;100776.39;1795260;79;21373;-62
2020/12/07 06:24:43;;;;;;;28.25;8.13;;;;;;;-8.14;72.30;100770.73;1794497;79;21117;-62
2020/12/07 06:27:15;;;;;;;17.05;7.45;;;;;;;-8.07;72.08;100763.97;1789590;79;21176;-64
2020/12/07 06:29:59;;;;;;;14.70;7.53;;;;;;;-8.02;71.73;100767.61;1792621;79;21576;-64
2020/12/07 06:32:51;;;;;;;14.15;6.55;;;;;;;-8.01;71.65;100771.88;1792662;79;21195;-62
2020/12/07 06:35:20;;;;;;;13.08;6.70;;;;;;;-7.95;71.43;100767.91;1713456;82;21872;-62
2020/12/07 06:37:50;;;;;;;23.92;7.35;;;;;;;-7.93;71.33;100768.48;1775545;79;21192;-63
2020/12/07 06:40:20;;;;;;;18.40;7.85;;;;;;;-7.90;71.34;100767.38;1799085;78;21167;-63
2020/12/07 06:42:48;;;;;;;15.72;7.00;;;;;;;-7.83;71.15;100772.37;1794511;78;21180;-63
2020/12/07 06:45:22;;;;;;;17.50;7.10;;;;;;;-7.80;71.00;100770.88;1792546;79;21227;-64
2020/12/07 06:47:52;;;;;;;15.10;7.15;;;;;;;-7.74;70.93;100770.30;1793895;78;21365;-63
2020/12/07 06:50:25;;;;;;;21.37;8.13;;;;;;;-7.67;70.67;100779.55;1794366;78;21230;-62
2020/12/07 06:52:50;;;;;;;18.87;7.37;;;;;;;-7.62;70.56;100773.48;1793898;78;21120;-63
2020/12/07 06:55:18;;;;;;;20.82;8.08;;;;;;;-7.58;70.43;100786.72;1795582;79;21537;-62
2020/12/07 06:57:50;;;;;;;12.50;6.28;;;;;;;-7.55;70.29;100780.96;1796891;79;21144;-63
2020/12/07 07:00:27;;;;;;;16.05;7.05;;;;;;;-7.50;70.04;100776.63;1798566;79;21228;-61
2020/12/07 07:02:57;;;;;;;13.90;6.97;;;;;;;-7.43;69.93;100772.77;1797249;78;21553;-62
2020/12/07 07:05:32;;;;;;;19.40;9.15;;;;;;;-7.33;69.94;100773.69;1797074;78;21466;-66
2020/12/07 07:08:03;;;;;;;16.05;6.90;;;;;;;-7.21;69.86;100770.92;1799184;79;21136;-61
2020/12/07 07:10:30;;;;;;;15.88;6.85;;;;;;;-7.11;69.26;100766.78;1798139;79;21100;-65
2020/12/07 07:13:00;;;;;;;12.03;5.97;;;;;;;-7.04;68.95;100773.50;1793806;79;21276;-66
2020/12/07 07:15:28;;;;;;;16.40;6.83;;;;;;;-7.03;68.62;100775.23;1794884;78;21608;-65
2020/12/07 07:17:56;;;;;;;15.05;8.35;;;;;;;-7.02;68.79;100782.03;1794661;79;21136;-63
2020/12/07 07:20:24;;;;;;;20.97;8.45;;;;;;;-6.96;68.82;100781.05;1747237;81;21183;-64
2020/12/07 07:22:53;;;;;;;16.10;6.70;;;;;;;-6.87;68.72;100773.45;1765841;81;21187;-64
2020/12/07 07:25:27;;;;;;;12.35;6.55;;;;;;;-6.79;68.63;100773.01;1775107;79;21130;-66
2020/12/07 07:28:09;;;;;;;20.82;7.50;;;;;;;-6.72;68.22;100772.91;1781606;79;21188;-65
2020/12/07 07:30:36;;;;;;;26.37;7.55;;;;;;;-6.65;68.10;100772.03;1762275;79;21092;-65
2020/12/07 07:33:05;;;;;;;51.73;10.43;;;;;;;-6.61;67.68;100770.13;1803810;78;21964;-65
2020/12/07 07:35:34;;;;;;;19.05;7.72;;;;;;;-6.62;67.64;100772.58;1804397;79;21578;-66
2020/12/07 07:38:01;;;;;;;15.10;6.47;;;;;;;-6.58;67.60;100767.23;1804878;78;21184;-66
2020/12/07 07:40:29;;;;;;;13.80;7.45;;;;;;;-6.53;67.19;100769.59;1806681;78;21641;-65
2020/12/07 07:43:02;;;;;;;14.58;7.55;;;;;;;-6.49;67.40;100771.48;1806339;79;21542;-66
2020/12/07 07:45:36;;;;;;;21.02;8.45;;;;;;;-6.43;67.28;100763.80;1806321;79;21180;-66
2020/12/07 07:48:21;;;;;;;23.42;7.53;;;;;;;-6.37;67.15;100770.78;1806044;79;21628;-65
2020/12/07 07:51:11;;;;;;;15.70;7.17;;;;;;;-6.31;67.25;100774.48;1806305;78;21211;-66
2020/12/07 08:15:51;;;;;;;15.20;6.70;;;;;;;-5.87;66.19;100759.55;1868255;75;22552;-66
2020/12/07 08:18:37;;;;;;;11.57;7.15;;;;;;;-5.88;66.13;100759.11;1838695;78;21140;-66
2020/12/07 08:21:09;;;;;;;31.17;8.70;;;;;;;-5.87;66.07;100750.67;1804346;78;21370;-68
2020/12/07 08:23:38;;;;;;;12.63;5.87;;;;;;;-5.83;66.46;100755.95;1812328;78;21626;-66
2020/12/07 08:26:06;;;;;;;12.30;6.05;;;;;;;-5.74;66.29;100751.67;1823847;77;21203;-65
2020/12/07 08:28:38;;;;;;;14.70;6.37;;;;;;;-5.69;66.13;100748.55;1837610;78;21180;-67
2020/12/07 08:31:17;;;;;;;12.73;6.17;;;;;;;-5.68;66.00;100742.69;1837665;77;21184;-66
2020/12/07 08:34:00;;;;;;;25.23;7.25;;;;;;;-5.61;66.06;100734.95;1837816;77;21353;-67
2020/12/07 08:36:29;;;;;;;10.10;5.12;;;;;;;-5.50;66.25;100736.67;1830970;77;21216;-64
2020/12/07 08:38:58;;;;;;;9.80;5.45;;;;;;;-5.42;66.10;100724.80;1808357;78;21045;-65
2020/12/07 08:41:28;;;;;;;10.65;6.20;;;;;;;-5.34;65.76;100723.44;1808135;78;21168;-65
2020/12/07 08:44:00;;;;;;;16.82;7.35;;;;;;;-5.28;65.55;100712.30;1808364;79;21149;-64
2020/12/07 08:46:30;;;;;;;14.25;6.45;;;;;;;-5.25;65.76;100704.81;1808415;79;21360;-65
2020/12/07 08:48:58;;;;;;;13.75;6.87;;;;;;;-5.17;65.75;100694.97;1808322;78;21073;-64
2020/12/07 08:51:30;;;;;;;11.95;6.67;;;;;;;-5.12;65.50;100689.69;1808450;79;21101;-64
2020/12/07 08:53:59;;;;;;;11.33;5.50;;;;;;;-5.05;65.54;100703.49;1808341;78;21152;-66
2020/12/07 08:56:27;;;;;;;17.10;9.20;;;;;;;-4.99;65.39;100691.03;1808344;78;21046;-62
2020/12/07 08:58:55;;;;;;;12.20;6.55;;;;;;;-4.91;65.54;100697.30;1808330;79;21205;-63
2020/12/07 09:01:23;;;;;;;12.05;5.90;;;;;;;-4.83;65.35;100695.94;1808253;78;21171;-63
2020/12/07 09:03:51;;;;;;;14.55;6.50;;;;;;;-4.77;65.12;100689.81;1808424;78;21062;-63
2020/12/07 09:06:20;;;;;;;14.75;6.53;;;;;;;-4.77;64.63;100686.41;1798325;78;21069;-63
2020/12/07 09:08:48;;;;;;;12.30;6.53;;;;;;;-4.77;64.65;100682.20;1779263;79;21042;-64
2020/12/07 09:11:20;;;;;;;11.25;5.65;;;;;;;-4.75;64.73;100684.40;1808344;79;21998;-65
2020/12/07 09:13:47;;;;;;;10.50;5.53;;;;;;;-4.68;65.00;100674.95;1816569;78;21700;-64
2020/12/07 09:16:16;;;;;;;19.02;7.00;;;;;;;-4.60;64.58;100676.53;1819057;78;21252;-66
2020/12/07 09:18:45;;;;;;;11.40;6.25;;;;;;;-4.55;64.83;100658.51;1809241;78;21436;-63
2020/12/07 09:21:13;;;;;;;13.18;6.08;;;;;;;-4.45;64.85;100653.39;1806833;78;21223;-65
2020/12/07 09:23:41;;;;;;;10.38;5.85;;;;;;;-4.36;64.35;100640.61;1792454;78;21456;-64
2020/12/07 09:26:09;;;;;;;11.48;6.47;;;;;;;-4.32;64.08;100637.78;1809880;78;21221;-64
2020/12/07 09:28:37;;;;;;;13.28;7.53;;;;;;;-4.33;63.68;100634.78;1794925;78;21210;-66
2020/12/07 09:31:11;;;;;;;19.27;6.53;;;;;;;-4.32;63.97;100635.25;1795603;77;21960;-64
2020/12/07 09:33:39;;;;;;;11.73;5.97;;;;;;;-4.30;63.91;100629.41;1823447;78;21159;-63
2020/12/07 09:36:07;;;;;;;18.73;7.20;;;;;;;-4.29;63.66;100626.47;1805524;77;22240;-64
2020/12/07 09:38:37;;;;;;;14.20;7.33;;;;;;;-4.29;64.15;100618.45;1809591;78;21219;-63
2020/12/07 09:41:07;;;;;;;12.00;6.37;;;;;;;-4.25;64.39;100621.56;1810364;78;21246;-63
2020/12/07 09:43:36;;;;;;;12.60;6.22;;;;;;;-4.19;64.11;100611.60;1810175;78;21746;-66
2020/12/07 09:46:05;;;;;;;9.38;5.20;;;;;;;-4.18;63.99;100607.39;1779523;79;21206;-65
2020/12/07 09:48:34;;;;;;;11.22;5.97;;;;;;;-4.13;63.96;100599.53;1783094;79;21676;-65
2020/12/07 09:51:03;;;;;;;10.55;5.33;;;;;;;-4.08;64.00;100599.70;1810589;79;21133;-65
2020/12/07 09:53:31;;;;;;;24.67;13.78;;;;;;;-4.05;64.10;100601.95;1809031;78;21739;-67
2020/12/07 09:55:58;;;;;;;15.08;6.55;;;;;;;-4.03;64.31;100599.06;1812359;78;21628;-64
2020/12/07 09:58:29;;;;;;;13.68;6.10;;;;;;;-4.00;64.28;100594.50;1825963;78;21803;-64
2020/12/07 10:00:58;;;;;;;17.67;6.33;;;;;;;-3.98;64.38;100591.16;1824726;78;21473;-66
2020/12/07 10:03:28;;;;;;;15.65;8.00;;;;;;;-3.98;64.69;100581.00;1823134;77;21232;-63
2020/12/07 10:05:58;;;;;;;9.98;5.55;;;;;;;-3.95;65.13;100578.57;1823272;77;21527;-67
2020/12/07 10:08:28;;;;;;;8.65;5.97;;;;;;;-3.85;65.32;100573.00;1823240;78;21181;-63
2020/12/07 10:11:08;;;;;;;12.43;5.72;;;;;;;-3.75;65.38;100573.30;1823462;78;21541;-64
2020/12/07 10:13:47;;;;;;;14.68;6.20;;;;;;;-3.67;65.56;100566.80;1817670;77;22205;-63
2020/12/07 10:16:21;;;;;;;15.25;8.05;;;;;;;-3.60;65.79;100567.06;1825781;78;21172;-64
2020/12/07 10:18:53;;;;;;;12.68;5.60;;;;;;;-3.56;65.80;100557.42;1791403;78;21492;-66
2020/12/07 10:21:26;;;;;;;12.60;5.78;;;;;;;-3.54;65.90;100555.80;1793265;78;21184;-63
2020/12/07 10:23:56;;;;;;;;;;;;;;;-3.52;65.82;100553.30;1790276;78;21652;-63
2020/12/07 10:26:26;;;;;;;11.38;6.35;;;;;;;-3.48;66.03;100551.32;1767340;79;22100;-64
2020/12/07 10:28:56;;;;;;;10.18;5.25;;;;;;;-3.40;66.22;100547.77;1777970;78;21183;-62
2020/12/07 10:31:27;;;;;;;7.60;4.47;;;;;;;-3.33;66.39;100547.98;1781737;80;21646;-62
2020/12/07 10:33:56;;;;;;;8.60;6.10;;;;;;;-3.29;66.55;100554.03;1762036;81;21099;-63
2020/12/07 10:36:24;;;;;;;14.65;7.45;;;;;;;-3.28;66.76;100549.00;1752104;80;21618;-63
2020/12/07 10:38:54;;;;;;;13.20;6.22;;;;;;;-3.25;66.86;100545.28;1752672;80;21448;-64
2020/12/07 10:41:29;;;;;;;13.55;7.20;;;;;;;-3.20;66.89;100533.98;1760522;80;21562;-63
2020/12/07 10:43:58;;;;;;;8.93;5.72;;;;;;;-3.13;67.04;100530.78;1750435;80;21197;-63
2020/12/07 10:46:27;;;;;;;10.28;6.12;;;;;;;-3.05;66.82;100531.03;1750986;81;21125;-63
2020/12/07 10:48:57;;;;;;;9.08;5.85;;;;;;;-3.01;66.91;100529.91;1750200;80;21193;-64
2020/12/07 10:51:26;;;;;;;12.45;5.92;;;;;;;-2.99;66.75;100519.73;1751429;81;21590;-65
2020/12/07 10:53:55;;;;;;;10.93;5.85;;;;;;;-2.99;66.78;100524.83;1751557;81;21153;-64
2020/12/07 10:56:24;;;;;;;10.40;6.15;;;;;;;-3.00;66.75;100515.09;1751352;81;21130;-63
2020/12/07 10:58:55;;;;;;;11.90;5.42;;;;;;;-3.00;67.03;100505.31;1751101;81;21157;-65
2020/12/07 11:01:27;;;;;;;9.68;5.37;;;;;;;-2.99;67.11;100503.19;1740395;80;22238;-66
2020/12/07 11:03:57;;;;;;;17.27;6.40;;;;;;;-2.97;66.71;100497.73;1719909;82;21390;-63
2020/12/07 11:06:33;;;;;;;11.63;7.08;;;;;;;-2.97;66.50;100509.19;1719550;82;21221;-66
2020/12/07 11:09:04;;;;;;;8.90;5.50;;;;;;;-2.96;66.64;100500.33;1740184;80;21154;-65
2020/12/07 11:11:30;;;;;;;9.75;5.50;;;;;;;-2.94;66.41;100487.66;1771012;79;21809;-65
2020/12/07 11:13:58;;;;;;;9.18;5.60;;;;;;;-2.90;66.53;100497.97;1759080;80;21170;-64
2020/12/07 11:16:27;;;;;;;13.08;5.58;;;;;;;-2.89;65.97;100493.75;1747970;81;21366;-63
2020/12/07 11:18:55;;;;;;;13.95;6.95;;;;;;;-2.91;65.84;100497.52;1746840;81;21191;-67
2020/12/07 11:21:24;;;;;;;13.72;7.45;;;;;;;-2.90;66.18;100481.84;1739866;80;21933;-63
2020/12/07 11:23:54;;;;;;;13.25;7.00;;;;;;;-2.85;66.01;100482.84;1728882;82;21210;-62
2020/12/07 11:26:22;;;;;;;15.10;7.00;;;;;;;-2.83;66.12;100483.34;1715018;82;21229;-65
2020/12/07 11:28:51;;;;;;;9.03;5.85;;;;;;;-2.77;66.15;100472.03;1716332;83;21621;-63
2020/12/07 11:31:19;;;;;;;13.80;7.85;;;;;;;-2.75;66.12;100491.58;1738201;80;21672;-66
2020/12/07 11:33:47;;;;;;;11.85;6.55;;;;;;;-2.75;66.27;100496.27;1749571;81;21212;-63
2020/12/07 11:36:16;;;;;;;10.35;6.25;;;;;;;-2.72;66.11;100483.63;1744338;81;21630;-65
2020/12/07 11:39:06;;;;;;;13.58;7.72;;;;;;;-2.73;66.11;100494.63;1741785;81;21194;-65
2020/12/07 11:41:43;;;;;;;15.43;8.20;;;;;;;-2.70;66.22;100497.27;1741731;81;21555;-64
2020/12/07 11:44:10;;;;;;;10.82;6.75;;;;;;;-2.61;66.37;100489.03;1739376;80;21180;-65
2020/12/07 11:46:51;;;;;;;19.32;7.30;;;;;;;-2.47;65.95;100477.52;1715685;82;21167;-64
2020/12/07 11:49:17;;;;;;;14.90;6.05;;;;;;;-2.39;65.52;100487.48;1753826;80;21487;-64
2020/12/07 11:51:46;;;;;;;17.92;7.70;;;;;;;-2.36;65.34;100480.34;1754221;79;21599;-64
2020/12/07 11:54:15;;;;;;;11.75;6.33;;;;;;;-2.31;64.80;100481.33;1732992;82;21275;-63